Skip Navigation Links
NOAA logo - Click to go to the NOAA homepage
NOAA's National Weather Service
Alaska Aviation Weather Unit
  NWS logo - Click to go to the NWS homepage
Left Navbar Graphic     19 AKDT = 03 GMT

   
NOAA is celebrating 200 years of science, service, and stewardship. Visit the NOAA 200th celebration Web site to learn more.
USA.gov is the U.S. Government's official Web portal to all Federal, state and local government Web resources and services.
Facebook
NWS on Facebook

Important Change Regarding the AAWU Web Presence

 

Over the last several months, the AAWU has been working to navigate its webpages to a nationally supported server. Security, as well as other needs, have necessitated the change.  We have been given an extension for the site changeover while we diligently work at addressing feedback received. As of July 14, 2017, aawu.arh.noaa.gov will be discontinued. The new AAWU web address is weather.gov/aawu. It is now live and will run in-parallel with the old site until it is discontinued on July 14, 2017. Please continue to send any feedback or questions regarding the new webpages to nws.ar.aawu.webauthors@noaa.gov.  Thank you for your patience during this time of transition.
AAWU Home :: Display TAF Add Bookmark
SPECI PAKV 282130Z AUTO 19007KT 130V230 10SM SCT019 BKN028 OVC050 13/09
     A2984 RMK AO2 RAE23 P0000 T01330094 TSNO=

METAR PAKV 282153Z AUTO VRB06KT 10SM -RA SCT022 BKN037 OVC070 13/09
     A2984 RMK AO2 RAE23B45 SLP108 P0000 T01330094 TSNO=

SPECI PAKV 282214Z AUTO VRB05KT 10SM SCT018 BKN027 OVC060 13/09 A2985
     RMK AO2 RAE12 P0000 T01330094 TSNO=

SPECI PAKV 282224Z AUTO VRB05KT 10SM SCT018 BKN032 OVC065 13/09 A2985
     RMK AO2 RAE12 P0000 T01330094 TSNO=

METAR PAKV 282253Z AUTO VRB04KT 10SM SCT021 SCT026 OVC034 13/09
 A2985 RMK AO2 RAE12 SLP111 P0000 T01330094 TSNO=

SPECI PAKV 282307Z AUTO 00000KT 10SM BKN021 OVC033 14/10 A2985 RMK
 AO2 T01440100 TSNO=

METAR PAKV 282353Z AUTO 21003KT 10SM FEW021 SCT029 OVC036 14/09
 A2985 RMK AO2 RAB32E41 SLP111 P0000 60001 T01390094 10150 20122
 50006 TSNO=

SPECI PAKV 290032Z AUTO 00000KT 5SM -RA BKN026 OVC033 14/09 A2986 RMK
     AO2 RAB15 P0001 T01390094 TSNO=

METAR PAKV 290053Z AUTO 00000KT 10SM SCT025 BKN035 OVC047 14/11 A2985
     RMK AO2 RAB15E40 SLP111 P0001 T01440106 TSNO=

SPECI PAKV 290103Z AUTO VRB03KT 10SM BKN027 OVC040 15/10 A2985 RMK AO2
     T01500100 TSNO=

SPECI PAKV 290140Z AUTO 21003KT 10SM SCT029 BKN035 OVC050 14/09 A2985
     RMK AO2 RAB17E37 P0000 T01440094 TSNO=

METAR PAKV 290153Z AUTO VRB03KT 10SM FEW035 BKN050 OVC090 15/10 A2985
     RMK AO2 RAB17E37 SLP110 P0000 T01500100 TSNO=

METAR PAKV 290253Z AUTO VRB04KT 10SM FEW033 BKN070 OVC100 16/09
 A2984 RMK AO2 SLP107 60001 T01610094 58003 TSNO=


NOAA's National Weather Service
Alaska Aviation Weather Unit
6930 Sand Lake Road
Anchorage, AK 99502-1845
Disclaimer
Credits
Glossary
Privacy Policy
About Us
Career Opportunities
Contact AAWU Internet Services Site last modified: April, 17th 2012